aviador You're here:

CYQB Decoded Metar

QUEBEC in QC, CANADA
Report Time2018-04-26 01:00:00
UTC Time2018-04-26 01:34:19
Flight Rules mvfr MVFR
Wind060° at 13 kt
W.Decomp.*RWY 06: 12.4 kt HW 3.8 kt RCW
RWY 12: 9.5 kt HW 8.9 kt LCW
W.Rank060° ranks 4
Current wind is above 060° avg. (9.5)
Visibility9656 m
Phenomena:Light Rain
Mist
Clouds:Scattered 022 Hf
Broken 027 Hf
Overcast 045 Hf
Expected CloudBase > 400 ft AGL from Temp-Dew spread
Ceiling2,700 ft
Temp09°C (ISA -6)
Dew Point08°C (94% RH)
AAT3.9°C
QNH1011 hPa
Density Alt-207 ft
Elevation240 ft
Report Wrong Elevation
Raw Report
CYQB 260100Z 06013KT 6SM -RA BR SCT022 BKN027 OVC045 09/08 A2985
RMK SC3SC3SC2 SLP113=

Extra information for CYQB:More info

Metar Taf Metar & Taf Last 4 Metars F.Rules Stats Wind Profile Meteogram Temp Stats Airport Information Weather charts Add Link Nearby VenuesMetar ALERT Operation Metar Decoded Social comments

navcanada